LRCT - CAMPIA TURZII

Compiled: 16:37:32 on 20/10/2018

Latest METAR/SPECI Reports

METAR LRCT 201600Z 36007KT 9999 SCT050 BKN170 16/09 Q1020 BLU BLU=

Previous reports

METAR LRCT 201500Z 36009KT 9999 FEW060 SCT180 17/10 Q1020 BLU BLU=
METAR LRCT 201400Z 36008KT 9999 FEW050TCU SCT180 19/09 Q10120 BLU BLU=
METAR LRCT 201300Z VRB03KT 9999 FEW055 SCT200 20/09 Q1020 BLU BLU=
METAR LRCT 201200Z VRB02KT 9999 SCT180 20/10 Q1020 BLU BLU=

Latest TAF report

TAF LRCT 201100Z 2012/2112 36004KT 9999 FEW050 SCT150 TEMPO 2013/2017 27010KT 6000 SHRA SCT030CB BKN070 BECMG 2023/2101 VRB03KT 6000 RA FEW005 BKN010 OVC040 TEMPO 2103/2107 3000 RA BR BKN004 OVC030=

Valid WARNINGS

No valid warnings for LRCT